Time;durP1;ratioP1;P1;durP2;ratioP2;P2;SDS_P1;SDS_P2;PMS_P1;PMS_P2;Temp;Humidity;BMP_temperature;BMP_pressure;BME280_temperature;BME280_humidity;BME280_pressure;Samples;Min_cycle;Max_cycle;Signal;HPM_P1;HPM_P2
2023/10/30 00:01:03;;;;;;;;;;;;;;;17.17;57.95;99974.69;5052442;28;19944;-77
2023/10/30 00:03:29;;;;;;;;;;;;;;;17.22;57.65;99971.41;5052248;28;20286;-77
2023/10/30 00:05:55;;;;;;;;;;;;;;;17.22;57.68;99971.41;5052188;28;19921;-78
2023/10/30 00:08:21;;;;;;;;;;;;;;;17.16;57.78;99981.06;5052082;28;19970;-77
2023/10/30 00:10:47;;;;;;;;;;;;;;;17.10;57.73;99980.06;5052190;28;20448;-78
2023/10/30 00:13:12;;;;;;;;;;;;;;;17.05;57.93;99981.69;5052015;28;19913;-77
2023/10/30 00:15:37;;;;;;;;;;;;;;;17.01;58.04;99978.63;5052177;28;20103;-77
2023/10/30 00:18:03;;;;;;;;;;;;;;;16.99;57.98;99975.34;5052236;28;20310;-78
2023/10/30 00:20:28;;;;;;;;;;;;;;;17.01;57.95;99965.28;5052528;28;20357;-77
2023/10/30 00:22:53;;;;;;;;;;;;;;;17.02;58.06;99972.25;5052386;28;19912;-78
2023/10/30 00:25:21;;;;;;;;;;;;;;;17.04;57.83;99975.53;5052004;28;19962;-77
2023/10/30 00:27:46;;;;;;;;;;;;;;;17.10;57.58;99971.22;5052011;28;19917;-78
2023/10/30 00:30:12;;;;;;;;;;;;;;;17.04;57.75;99975.53;5051959;28;19920;-78
2023/10/30 00:32:37;;;;;;;;;;;;;;;17.01;57.86;99981.28;5067496;28;19999;-78
2023/10/30 00:35:02;;;;;;;;;;;;;;;17.03;57.74;99976.56;5051973;28;19919;-78
2023/10/30 00:37:27;;;;;;;;;;;;;;;17.04;57.97;99978.19;5051877;28;19970;-78
2023/10/30 00:39:53;;;;;;;;;;;;;;;17.05;57.86;99971.00;5051875;28;19919;-78
2023/10/30 00:42:18;;;;;;;;;;;;;;;17.03;57.98;99973.06;5051682;28;19924;-77
2023/10/30 00:44:43;;;;;;;;;;;;;;;17.04;58.07;99974.72;5051711;28;19932;-77
2023/10/30 00:47:09;;;;;;;;;;;;;;;17.03;58.16;99978.41;5051621;28;19913;-77
2023/10/30 00:49:34;;;;;;;;;;;;;;;17.06;58.04;99976.13;5050894;28;19920;-78
2023/10/30 00:51:59;;;;;;;;;;;;;;;16.99;58.10;99978.00;5051615;28;19913;-77
2023/10/30 00:54:24;;;;;;;;;;;;;;;16.98;58.22;99975.53;5051447;28;19928;-78
2023/10/30 00:56:50;;;;;;;;;;;;;;;16.96;58.38;99980.28;5051759;28;20322;-78
2023/10/30 00:59:15;;;;;;;;;;;;;;;16.99;58.05;99977.19;5052000;28;19913;-78
2023/10/30 01:01:40;;;;;;;;;;;;;;;16.98;57.83;99979.03;5051706;28;20330;-77
2023/10/30 01:04:06;;;;;;;;;;;;;;;16.97;57.99;99969.38;5051590;28;19913;-78
2023/10/30 01:06:31;;;;;;;;;;;;;;;16.99;57.91;99974.53;5051804;28;19913;-77
2023/10/30 01:08:56;;;;;;;;;;;;;;;16.99;57.51;99975.34;5051535;28;19917;-78
2023/10/30 01:11:21;;;;;;;;;;;;;;;16.94;57.67;99972.47;5051773;28;19951;-77
2023/10/30 01:13:47;;;;;;;;;;;;;;;16.91;57.93;99978.22;5066952;28;20386;-78
2023/10/30 01:16:12;;;;;;;;;;;;;;;16.87;57.76;99984.19;5051378;28;19913;-77
2023/10/30 01:18:37;;;;;;;;;;;;;;;16.81;57.84;99993.84;5051385;28;19916;-78
2023/10/30 01:21:07;;;;;;;;;;;;;;;16.81;57.75;99991.19;5051655;28;20348;-77
2023/10/30 01:23:32;;;;;;;;;;;;;;;16.78;57.90;99987.06;5051540;28;19913;-77
2023/10/30 01:25:58;;;;;;;;;;;;;;;16.72;58.04;99993.25;5051601;28;19912;-77
2023/10/30 01:28:23;;;;;;;;;;;;;;;16.64;58.03;99990.75;5051462;28;20412;-77
2023/10/30 01:30:48;;;;;;;;;;;;;;;16.56;57.98;99984.81;5051462;28;19920;-78
2023/10/30 01:33:14;;;;;;;;;;;;;;;16.51;58.15;99993.44;5051620;28;19955;-77
2023/10/30 01:35:39;;;;;;;;;;;;;;;16.43;58.56;99991.78;5066883;28;20378;-78
2023/10/30 01:38:04;;;;;;;;;;;;;;;16.39;58.24;99995.06;5051524;28;19917;-77
2023/10/30 01:40:30;;;;;;;;;;;;;;;16.32;58.46;100000.38;5051218;28;19917;-77
2023/10/30 01:42:55;;;;;;;;;;;;;;;16.30;58.83;99993.59;5051083;28;19913;-77
2023/10/30 01:45:20;;;;;;;;;;;;;;;16.29;58.45;99990.13;5051304;28;20302;-77
2023/10/30 01:47:46;;;;;;;;;;;;;;;16.30;58.48;99991.75;5051159;28;19916;-77
2023/10/30 01:50:14;;;;;;;;;;;;;;;16.30;58.65;99982.94;5051148;28;19919;-77
2023/10/30 01:52:40;;;;;;;;;;;;;;;16.28;58.93;99988.47;5051313;28;19917;-77
2023/10/30 01:55:05;;;;;;;;;;;;;;;16.27;58.67;99992.16;5050110;28;19970;-77
2023/10/30 01:57:31;;;;;;;;;;;;;;;16.26;58.94;99984.38;5052019;28;19917;-78
2023/10/30 01:59:57;;;;;;;;;;;;;;;16.22;58.94;99983.97;5054377;28;19912;-78
2023/10/30 02:02:23;;;;;;;;;;;;;;;16.20;59.02;99984.16;5053249;28;19923;-77
2023/10/30 02:04:48;;;;;;;;;;;;;;;16.25;58.68;99986.22;5049817;28;20021;-77
2023/10/30 02:07:14;;;;;;;;;;;;;;;16.23;58.96;99979.44;5051559;28;19912;-77
2023/10/30 02:09:39;;;;;;;;;;;;;;;16.20;59.01;99980.69;5049829;28;20417;-77
2023/10/30 02:12:05;;;;;;;;;;;;;;;16.16;59.24;99977.59;5053236;28;19912;-77
2023/10/30 02:14:30;;;;;;;;;;;;;;;16.16;59.04;99974.94;5054528;28;19920;-77
2023/10/30 02:16:55;;;;;;;;;;;;;;;16.20;58.92;99983.34;5054543;28;19940;-77
2023/10/30 02:19:25;;;;;;;;;;;;;;;16.23;59.06;99984.78;5053136;28;19913;-77
2023/10/30 02:21:54;;;;;;;;;;;;;;;16.21;59.04;99983.13;5054644;28;19913;-77
2023/10/30 02:24:20;;;;;;;;;;;;;;;16.13;59.19;99990.50;5054415;28;19951;-77
2023/10/30 02:26:49;;;;;;;;;;;;;;;16.08;59.24;99979.63;5054268;28;19948;-77
2023/10/30 02:29:14;;;;;;;;;;;;;;;16.05;59.36;99988.03;5054070;28;19987;-78
2023/10/30 02:31:40;;;;;;;;;;;;;;;15.93;59.58;99992.31;5054159;28;20381;-77
2023/10/30 02:34:05;;;;;;;;;;;;;;;15.92;59.24;99985.34;5054181;28;19913;-77
2023/10/30 02:36:30;;;;;;;;;;;;;;;15.87;59.94;99994.75;5054042;28;19966;-77
2023/10/30 02:38:56;;;;;;;;;;;;;;;15.88;60.05;99988.41;5052879;28;20325;-77
2023/10/30 02:41:21;;;;;;;;;;;;;;;15.91;59.63;99989.03;5053038;28;19912;-77
2023/10/30 02:43:46;;;;;;;;;;;;;;;15.91;59.57;99992.53;5052889;28;19936;-77
2023/10/30 02:46:12;;;;;;;;;;;;;;;15.89;59.57;99994.56;5052778;28;19912;-77
2023/10/30 02:48:37;;;;;;;;;;;;;;;15.86;59.80;99989.63;5054101;28;19917;-77
2023/10/30 02:51:02;;;;;;;;;;;;;;;15.87;59.99;99984.13;5054060;28;19917;-77
2023/10/30 02:53:28;;;;;;;;;;;;;;;15.93;59.82;99985.16;5053851;28;20370;-77
2023/10/30 02:55:53;;;;;;;;;;;;;;;15.98;59.73;99984.53;5053917;28;19920;-78
2023/10/30 02:58:18;;;;;;;;;;;;;;;15.95;59.88;99987.59;5053796;28;19923;-77
2023/10/30 03:00:43;;;;;;;;;;;;;;;15.92;59.61;99993.34;5053896;28;19913;-77
2023/10/30 03:03:12;;;;;;;;;;;;;;;15.87;59.61;99986.78;5053759;28;19919;-77
2023/10/30 03:05:37;;;;;;;;;;;;;;;15.89;59.63;99983.91;5053636;28;19928;-77
2023/10/30 03:08:02;;;;;;;;;;;;;;;15.88;59.50;99992.94;5053714;28;19921;-76
2023/10/30 03:10:28;;;;;;;;;;;;;;;15.84;59.73;99995.16;5053780;28;19960;-77
2023/10/30 03:12:53;;;;;;;;;;;;;;;15.84;59.51;100003.16;5053383;28;19939;-77
2023/10/30 03:15:19;;;;;;;;;;;;;;;15.84;59.54;100008.47;5053533;28;19913;-76
2023/10/30 03:17:44;;;;;;;;;;;;;;;15.82;59.47;100004.38;5053772;28;19920;-78
2023/10/30 03:20:09;;;;;;;;;;;;;;;15.71;59.66;100010.28;5054108;28;19936;-77
2023/10/30 03:22:35;;;;;;;;;;;;;;;15.68;59.58;100005.38;5052815;28;19913;-77
2023/10/30 03:25:00;;;;;;;;;;;;;;;15.65;59.77;100006.56;5053511;28;19950;-77
2023/10/30 03:27:25;;;;;;;;;;;;;;;15.64;59.79;100010.25;5053483;28;19936;-77
2023/10/30 03:29:51;;;;;;;;;;;;;;;15.59;60.37;100020.66;5051920;28;19924;-77
2023/10/30 03:32:16;;;;;;;;;;;;;;;15.57;59.77;100012.88;5051796;28;19935;-77
2023/10/30 03:34:41;;;;;;;;;;;;;;;15.54;59.98;100013.22;5052898;28;20960;-77
2023/10/30 03:37:07;;;;;;;;;;;;;;;15.54;60.04;100012.41;5053082;28;19913;-78
2023/10/30 03:39:32;;;;;;;;;;;;;;;15.55;59.69;100012.22;5052796;28;19983;-77
2023/10/30 03:41:57;;;;;;;;;;;;;;;15.53;59.96;100008.94;5052937;28;19995;-77
2023/10/30 03:44:26;;;;;;;;;;;;;;;15.49;59.70;100009.53;5052793;28;19919;-77
2023/10/30 03:46:51;;;;;;;;;;;;;;;15.45;59.96;100003.78;5052620;28;19913;-77
2023/10/30 03:49:16;;;;;;;;;;;;;;;15.45;59.68;100003.78;5067929;28;19939;-78
2023/10/30 03:51:41;;;;;;;;;;;;;;;15.41;60.19;99996.38;5052626;28;19912;-77
2023/10/30 03:54:08;;;;;;;;;;;;;;;15.38;59.85;99994.13;5052594;28;19920;-78
2023/10/30 03:56:33;;;;;;;;;;;;;;;15.31;60.10;99993.28;5052768;28;19956;-78
2023/10/30 03:58:58;;;;;;;;;;;;;;;15.23;60.22;100002.25;5052720;28;19956;-77
2023/10/30 04:01:24;;;;;;;;;;;;;;;15.17;60.42;99998.53;5052593;28;19920;-77
2023/10/30 04:03:49;;;;;;;;;;;;;;;15.17;60.03;100006.50;5052543;28;20389;-76
2023/10/30 04:06:14;;;;;;;;;;;;;;;15.19;60.19;99999.16;5052346;28;19920;-77
2023/10/30 04:08:40;;;;;;;;;;;;;;;15.14;60.58;99998.94;5052393;28;19995;-77
2023/10/30 04:11:10;;;;;;;;;;;;;;;15.11;60.69;100003.81;5052417;28;20004;-78
2023/10/30 04:13:35;;;;;;;;;;;;;;;15.11;60.39;100001.16;5067624;28;20286;-78
2023/10/30 04:16:00;;;;;;;;;;;;;;;15.07;60.58;100008.72;5052507;28;19920;-77
2023/10/30 04:18:26;;;;;;;;;;;;;;;15.06;60.35;100007.06;5051001;28;19916;-77
2023/10/30 04:20:51;;;;;;;;;;;;;;;15.04;60.62;100002.97;5052382;28;20007;-77
2023/10/30 04:23:16;;;;;;;;;;;;;;;15.02;60.40;100005.81;5052537;28;20350;-77
2023/10/30 04:25:42;;;;;;;;;;;;;;;15.02;60.82;100013.78;5052212;28;19976;-76
2023/10/30 04:28:07;;;;;;;;;;;;;;;14.96;61.11;100011.09;5051913;28;19923;-77
2023/10/30 04:30:32;;;;;;;;;;;;;;;14.96;61.03;100005.78;5052097;28;20451;-76
2023/10/30 04:32:57;;;;;;;;;;;;;;;14.97;60.70;100013.56;5052267;28;19996;-76
2023/10/30 04:35:23;;;;;;;;;;;;;;;14.91;61.12;100014.34;5052046;28;19911;-77
2023/10/30 04:37:48;;;;;;;;;;;;;;;14.92;60.30;100016.81;5051796;28;20455;-76
2023/10/30 04:40:13;;;;;;;;;;;;;;;14.87;61.22;100015.75;5051794;28;19940;-77
2023/10/30 04:42:39;;;;;;;;;;;;;;;14.83;60.95;100027.75;5051912;28;19917;-77
2023/10/30 04:45:04;;;;;;;;;;;;;;;14.81;60.82;100029.78;5051928;28;19909;-77
2023/10/30 04:47:29;;;;;;;;;;;;;;;14.76;60.91;100032.19;5051863;28;19966;-77
2023/10/30 04:49:55;;;;;;;;;;;;;;;14.81;60.71;100027.13;5051997;28;20322;-77
2023/10/30 04:52:20;;;;;;;;;;;;;;;14.80;61.04;100028.13;5051652;28;20017;-77
2023/10/30 04:54:45;;;;;;;;;;;;;;;14.82;60.70;100024.25;5051555;28;19913;-76
2023/10/30 04:57:10;;;;;;;;;;;;;;;14.82;60.87;100018.94;5051693;28;20390;-77
2023/10/30 04:59:36;;;;;;;;;;;;;;;14.84;60.94;100027.56;5050506;28;19966;-76
2023/10/30 05:02:01;;;;;;;;;;;;;;;14.88;60.63;100026.19;5050396;28;19920;-76
2023/10/30 05:04:27;;;;;;;;;;;;;;;14.85;60.83;100033.69;5067198;28;19990;-78
2023/10/30 05:06:52;;;;;;;;;;;;;;;14.86;60.63;100030.88;5051658;28;19952;-77
2023/10/30 05:09:17;;;;;;;;;;;;;;;14.91;60.75;100033.78;5051482;28;19917;-77
2023/10/30 05:11:42;;;;;;;;;;;;;;;14.88;60.49;100042.13;5051564;28;20360;-77
2023/10/30 05:14:08;;;;;;;;;;;;;;;14.90;60.40;100033.97;5051449;28;20003;-76
2023/10/30 05:16:33;;;;;;;;;;;;;;;14.94;60.41;100040.53;5051582;28;19913;-78
2023/10/30 05:18:59;;;;;;;;;;;;;;;14.97;60.57;100040.16;5051497;28;19917;-78
2023/10/30 05:21:24;;;;;;;;;;;;;;;15.02;60.21;100045.69;5051520;28;19913;-77
2023/10/30 05:23:49;;;;;;;;;;;;;;;15.02;60.62;100042.22;5051634;28;19920;-77
2023/10/30 05:26:15;;;;;;;;;;;;;;;15.00;60.67;100038.94;5051182;28;19913;-78
2023/10/30 05:28:40;;;;;;;;;;;;;;;15.02;60.54;100042.22;5051284;28;20321;-77
2023/10/30 05:31:06;;;;;;;;;;;;;;;15.05;60.35;100037.34;5051556;28;19912;-77
2023/10/30 05:33:31;;;;;;;;;;;;;;;15.07;60.53;100048.59;5051601;28;19971;-76
2023/10/30 05:35:56;;;;;;;;;;;;;;;15.12;60.17;100048.00;5051349;28;19924;-78
2023/10/30 05:38:22;;;;;;;;;;;;;;;15.11;60.74;100047.19;5051196;28;19972;-77
2023/10/30 05:40:47;;;;;;;;;;;;;;;15.12;60.39;100040.84;5051334;28;19923;-77
2023/10/30 05:43:13;;;;;;;;;;;;;;;15.15;60.67;100048.44;5066548;28;20439;-77
2023/10/30 05:45:39;;;;;;;;;;;;;;;15.21;60.21;100049.50;5051312;28;19917;-77
2023/10/30 05:48:04;;;;;;;;;;;;;;;15.26;60.37;100060.38;5054938;28;19917;-77
2023/10/30 05:50:29;;;;;;;;;;;;;;;15.32;59.94;100053.44;5055004;28;19913;-76
2023/10/30 05:52:55;;;;;;;;;;;;;;;15.43;59.89;100059.03;5054919;28;19913;-77
2023/10/30 05:55:20;;;;;;;;;;;;;;;15.50;59.90;100056.41;5054746;28;20396;-78
2023/10/30 05:57:45;;;;;;;;;;;;;;;15.54;59.48;100062.97;5053631;28;19913;-78
2023/10/30 06:00:11;;;;;;;;;;;;;;;15.60;59.60;100059.56;5053525;28;19952;-78
2023/10/30 06:02:36;;;;;;;;;;;;;;;15.64;59.43;100060.00;5054864;28;19944;-78
2023/10/30 06:05:02;;;;;;;;;;;;;;;15.69;59.29;100063.72;5054734;28;19921;-78
2023/10/30 06:07:27;;;;;;;;;;;;;;;15.71;59.51;100064.34;5054846;28;19913;-77
2023/10/30 06:09:53;;;;;;;;;;;;;;;15.76;59.16;100067.25;5054868;28;19916;-77
2023/10/30 06:12:19;;;;;;;;;;;;;;;15.80;59.27;100063.16;5054968;28;19913;-78
2023/10/30 06:14:44;;;;;;;;;;;;;;;15.85;59.24;100050.06;5069989;28;19939;-78
2023/10/30 06:17:09;;;;;;;;;;;;;;;15.88;59.22;100057.66;5054617;28;19970;-77
2023/10/30 06:19:35;;;;;;;;;;;;;;;15.95;58.83;100059.50;5054719;28;20016;-78
2023/10/30 06:22:00;;;;;;;;;;;;;;;15.98;58.96;100062.59;5054504;28;19913;-78
2023/10/30 06:24:25;;;;;;;;;;;;;;;16.05;58.83;100065.28;5054331;28;20386;-76
2023/10/30 06:26:50;;;;;;;;;;;;;;;16.11;58.69;100051.97;5069606;28;19912;-77
2023/10/30 06:29:16;;;;;;;;;;;;;;;16.20;58.77;100064.09;5054120;28;20012;-77
2023/10/30 06:31:41;;;;;;;;;;;;;;;16.17;58.61;100066.34;5054121;28;20389;-77
2023/10/30 06:34:07;;;;;;;;;;;;;;;16.22;58.37;100063.88;5054180;28;19970;-77
2023/10/30 06:36:32;;;;;;;;;;;;;;;16.29;58.35;100070.06;5053974;28;19975;-77
2023/10/30 06:38:59;;;;;;;;;;;;;;;16.35;58.29;100071.09;5054017;28;19913;-76
2023/10/30 06:41:24;;;;;;;;;;;;;;;16.30;58.58;100073.53;5069306;28;20417;-77
2023/10/30 06:43:51;;;;;;;;;;;;;;;16.39;58.34;100072.34;5053750;28;19995;-78
2023/10/30 06:46:16;;;;;;;;;;;;;;;16.50;58.24;100077.09;5053720;28;19913;-77
2023/10/30 06:48:41;;;;;;;;;;;;;;;16.58;57.86;100070.72;5059607;28;19927;-77
2023/10/30 06:51:07;;;;;;;;;;;;;;;16.65;57.74;100071.56;5070608;28;19959;-78
2023/10/30 06:53:32;;;;;;;;;;;;;;;16.71;57.63;100074.25;5063535;28;19912;-77
2023/10/30 06:55:58;;;;;;;;;;;;;;;16.78;57.52;100068.91;5073981;28;19913;-78
2023/10/30 06:58:23;;;;;;;;;;;;;;;16.83;57.61;100077.13;5072480;28;19919;-75
2023/10/30 07:00:48;;;;;;;;;;;;;;;16.90;57.26;100079.78;5072585;28;20355;-77
2023/10/30 07:03:14;;;;;;;;;;;;;;;16.98;57.33;100077.72;5072316;28;19912;-77
2023/10/30 07:05:39;;;;;;;;;;;;;;;17.08;57.13;100075.47;5073424;28;19927;-77
2023/10/30 07:08:04;;;;;;;;;;;;;;;17.17;56.79;100068.09;5084661;28;19920;-77
2023/10/30 07:10:30;;;;;;;;;;;;;;;17.26;56.55;100058.00;5077405;28;20361;-76
2023/10/30 07:12:55;;;;;;;;;;;;;;;17.37;56.29;100065.38;5073546;28;19916;-77
2023/10/30 07:15:20;;;;;;;;;;;;;;;17.44;55.80;100068.84;5073493;28;19948;-77
2023/10/30 07:17:46;;;;;;;;;;;;;;;17.52;55.86;100063.28;5073397;28;19913;-77
2023/10/30 07:20:11;;;;;;;;;;;;;;;17.63;55.77;100073.31;5073294;28;19912;-76
2023/10/30 07:22:37;;;;;;;;;;;;;;;17.73;55.48;100070.22;5073441;28;19913;-78
2023/10/30 07:25:02;;;;;;;;;;;;;;;17.81;55.37;100069.16;5073346;28;20291;-77
2023/10/30 07:27:28;;;;;;;;;;;;;;;17.89;55.21;100066.28;5073282;28;19912;-77
2023/10/30 07:29:53;;;;;;;;;;;;;;;17.95;54.92;100062.75;5071125;28;19920;-77
2023/10/30 07:32:18;;;;;;;;;;;;;;;18.04;54.87;100067.63;5070011;28;19920;-76
2023/10/30 07:34:44;;;;;;;;;;;;;;;18.12;54.60;100061.22;5075211;28;19925;-78
2023/10/30 07:37:09;;;;;;;;;;;;;;;18.18;54.15;100059.53;5064358;28;20320;-76
2023/10/30 07:39:34;;;;;;;;;;;;;;;18.23;53.41;100060.53;5072668;28;19974;-77
2023/10/30 07:42:00;;;;;;;;;;;;;;;18.30;53.89;100058.63;5071106;28;20304;-76
2023/10/30 07:44:26;;;;;;;;;;;;;;;18.35;53.77;100066.00;5072612;28;19969;-77
2023/10/30 07:46:51;;;;;;;;;;;;;;;18.41;53.41;100065.97;5060496;28;19924;-77
2023/10/30 07:49:16;;;;;;;;;;;;;;;18.43;53.58;100061.22;5058371;28;19928;-77
2023/10/30 07:51:41;;;;;;;;;;;;;;;18.49;52.90;100061.38;5062955;28;20317;-77
2023/10/30 07:54:07;;;;;;;;;;;;;;;18.57;53.02;100061.13;5065421;28;19959;-77
2023/10/30 07:56:32;;;;;;;;;;;;;;;18.66;52.92;100062.56;5070143;28;19917;-77
2023/10/30 07:58:57;;;;;;;;;;;;;;;18.72;52.65;100059.00;5056347;28;20397;-76
2023/10/30 08:01:23;;;;;;;;;;;;;;;18.75;52.18;100055.06;5070908;28;20357;-77
2023/10/30 08:03:49;;;;;;;;;;;;;;;18.76;51.97;100049.50;5072249;28;20363;-77
2023/10/30 08:06:14;;;;;;;;;;;;;;;18.78;52.46;100051.97;5068893;28;19927;-77
2023/10/30 08:08:39;;;;;;;;;;;;;;;18.84;52.63;100057.25;5060428;28;19974;-77
2023/10/30 08:11:04;;;;;;;;;;;;;;;18.90;52.58;100059.06;5054213;28;20294;-77
2023/10/30 08:13:30;;;;;;;;;;;;;;;18.97;52.44;100059.81;5071105;28;19959;-77
2023/10/30 08:15:55;;;;;;;;;;;;;;;19.02;51.59;100062.66;5070869;28;19920;-77
2023/10/30 08:18:20;;;;;;;;;;;;;;;19.06;52.60;100055.00;5071050;28;19916;-77
2023/10/30 08:20:46;;;;;;;;;;;;;;;19.10;52.19;100060.72;5070928;28;20412;-78
2023/10/30 08:23:11;;;;;;;;;;;;;;;19.15;52.09;100055.53;5070679;28;19917;-77
2023/10/30 08:25:36;;;;;;;;;;;;;;;19.22;51.85;100058.97;5069631;28;19916;-77
2023/10/30 08:28:02;;;;;;;;;;;;;;;19.33;52.72;100050.22;5066593;28;19968;-76
2023/10/30 08:30:28;;;;;;;;;;;;;;;19.40;52.05;100050.97;5070033;28;19970;-76
2023/10/30 08:32:53;;;;;;;;;;;;;;;19.46;51.68;100046.56;5064790;28;20361;-77
2023/10/30 08:35:18;;;;;;;;;;;;;;;19.53;52.02;100042.81;5068303;28;19917;-75
2023/10/30 08:37:43;;;;;;;;;;;;;;;19.61;51.46;100047.84;5069618;28;20041;-77
2023/10/30 08:40:09;;;;;;;;;;;;;;;19.68;50.89;100051.28;5071805;28;19917;-77
2023/10/30 08:42:34;;;;;;;;;;;;;;;19.75;51.35;100050.38;5071759;28;20011;-77
2023/10/30 08:45:00;;;;;;;;;;;;;;;19.82;51.75;100049.25;5071527;28;19920;-76
2023/10/30 08:47:25;;;;;;;;;;;;;;;19.88;50.86;100044.84;5061276;28;19943;-75
2023/10/30 08:49:50;;;;;;;;;;;;;;;19.97;50.97;100046.16;5070911;28;19916;-76
2023/10/30 08:52:15;;;;;;;;;;;;;;;20.01;50.57;100041.97;5069144;28;20377;-77
2023/10/30 08:54:42;;;;;;;;;;;;;;;20.00;50.61;100041.16;5071558;28;19919;-76
2023/10/30 08:57:07;;;;;;;;;;;;;;;20.06;50.29;100038.63;5071121;28;19952;-76
2023/10/30 08:59:35;;;;;;;;;;;;;;;20.08;50.43;100037.38;5057044;28;19948;-76
2023/10/30 09:02:00;;;;;;;;;;;;;;;20.14;50.60;100041.81;5067632;28;19930;-77
2023/10/30 09:04:26;;;;;;;;;;;;;;;20.22;49.88;100035.31;5061065;28;19920;-75
2023/10/30 09:06:51;;;;;;;;;;;;;;;20.25;50.04;100032.19;5060190;28;20340;-77
2023/10/30 09:09:16;;;;;;;;;;;;;;;20.36;50.41;100027.91;5075842;28;19920;-77
2023/10/30 09:11:42;;;;;;;;;;;;;;;20.46;49.83;100033.53;5069463;28;19916;-76
2023/10/30 09:14:07;;;;;;;;;;;;;;;20.53;49.81;100028.88;5069755;28;19926;-77
2023/10/30 09:16:32;;;;;;;;;;;;;;;20.61;49.31;100025.88;5063096;28;19974;-76
2023/10/30 09:18:59;;;;;;;;;;;;;;;20.65;49.63;100024.34;5051499;28;19921;-76
2023/10/30 09:21:24;;;;;;;;;;;;;;;20.71;49.60;100020.75;5072187;28;19924;-75
2023/10/30 09:23:49;;;;;;;;;;;;;;;20.78;50.45;100026.00;5071955;28;19913;-78
2023/10/30 09:26:14;;;;;;;;;;;;;;;20.85;49.76;100032.91;5073623;28;19920;-76
2023/10/30 09:28:40;;;;;;;;;;;;;;;20.90;48.52;100024.16;5072128;28;19916;-77
2023/10/30 09:31:05;;;;;;;;;;;;;;;20.98;49.25;100021.13;5072116;28;20403;-77
2023/10/30 09:33:32;;;;;;;;;;;;;;;21.07;49.05;100019.72;5073395;28;19912;-75
2023/10/30 09:35:57;;;;;;;;;;;;;;;21.14;48.87;100015.03;5075141;28;19959;-77
2023/10/30 09:38:24;;;;;;;;;;;;;;;21.20;49.00;100018.66;5075103;28;19955;-77
2023/10/30 09:40:58;;;;;;;;;;;;;;;21.30;49.15;100012.72;5072383;28;19974;-77
2023/10/30 09:43:28;;;;;;;;;;;;;;;21.42;49.41;100010.81;5068493;28;19978;-77
2023/10/30 09:45:56;;;;;;;;;;;;;;;21.49;47.99;100006.13;5062633;28;19982;-78
2023/10/30 09:48:23;;;;;;;;;;;;;;;21.55;48.88;100008.69;5054960;28;19917;-76
2023/10/30 09:50:49;;;;;;;;;;;;;;;21.64;48.64;100009.13;5074817;28;20007;-76
2023/10/30 09:53:16;;;;;;;;;;;;;;;21.75;49.05;100000.22;5068132;28;19919;-77
2023/10/30 09:55:42;;;;;;;;;;;;;;;21.81;48.17;99996.56;5036273;28;19921;-77
2023/10/30 09:58:07;;;;;;;;;;;;;;;21.86;48.21;99990.47;5043455;28;20374;-77
2023/10/30 10:00:32;;;;;;;;;;;;;;;21.96;48.33;99987.97;5052013;28;20386;-77
2023/10/30 10:02:58;;;;;;;;;;;;;;;21.98;47.28;99988.53;5055613;28;20011;-78
2023/10/30 10:05:23;;;;;;;;;;;;;;;21.97;47.54;99991.47;5054680;28;19920;-77
2023/10/30 10:07:50;;;;;;;;;;;;;;;21.97;47.78;99978.03;5050614;28;19990;-77
2023/10/30 10:10:18;;;;;;;;;;;;;;;22.02;47.89;99984.31;5054176;28;19917;-75
2023/10/30 10:12:43;;;;;;;;;;;;;;;22.09;48.52;99978.81;5044534;28;19924;-75
2023/10/30 10:15:08;;;;;;;;;;;;;;;22.18;48.22;99978.16;5051686;28;19921;-76
2023/10/30 10:17:45;;;;;;;;;;;;;;;22.21;48.57;99974.16;5052584;28;20413;-76
2023/10/30 10:20:11;;;;;;;;;;;;;;;22.29;48.28;99975.63;5053115;28;19917;-76
2023/10/30 10:22:38;;;;;;;;;;;;;;;22.34;48.22;99970.38;5053713;28;19916;-77
2023/10/30 10:25:04;;;;;;;;;;;;;;;22.43;48.40;99968.91;5052476;28;19970;-77
2023/10/30 10:27:29;;;;;;;;;;;;;;;22.52;48.61;99962.06;5051054;28;19925;-77
2023/10/30 10:29:55;;;;;;;;;;;;;;;22.58;48.19;99958.38;5038109;28;20039;-77
2023/10/30 10:32:27;;;;;;;;;;;;;;;22.61;47.49;99957.06;5033551;28;20321;-77
2023/10/30 10:34:57;;;;;;;;;;;;;;;22.64;48.16;99954.69;5039310;28;19921;-77
2023/10/30 10:37:23;;;;;;;;;;;;;;;22.68;47.53;99950.44;5051900;28;19917;-78
2023/10/30 10:39:49;;;;;;;;;;;;;;;22.71;47.49;99944.56;5053472;28;19917;-78
2023/10/30 10:42:19;;;;;;;;;;;;;;;22.74;47.34;99943.25;5063397;28;19916;-78
2023/10/30 10:44:45;;;;;;;;;;;;;;;22.78;47.36;99939.00;5055469;28;19920;-78
2023/10/30 10:47:10;;;;;;;;;;;;;;;22.85;46.51;99938.84;5049383;28;20008;-78
2023/10/30 10:49:36;;;;;;;;;;;;;;;22.82;46.86;99935.59;5041003;28;20398;-76
2023/10/30 10:52:04;;;;;;;;;;;;;;;22.86;47.66;99935.91;5050524;28;19978;-76
2023/10/30 10:54:35;;;;;;;;;;;;;;;22.85;46.66;99926.22;5042211;28;19996;-76
2023/10/30 10:57:01;;;;;;;;;;;;;;;22.86;46.45;99924.34;5049883;28;19929;-76
2023/10/30 10:59:30;;;;;;;;;;;;;;;22.88;47.14;99923.03;5049812;28;19909;-75
2023/10/30 11:01:56;;;;;;;;;;;;;;;22.91;46.90;99927.09;5053107;28;19917;-76
2023/10/30 11:04:22;;;;;;;;;;;;;;;22.92;47.07;99923.34;5048363;28;20314;-75
2023/10/30 11:06:50;;;;;;;;;;;;;;;22.93;46.88;99919.56;5050364;28;20373;-77
2023/10/30 11:09:36;;;;;;;;;;;;;;;22.91;46.21;99910.94;5051427;28;19931;-75
2023/10/30 11:12:10;;;;;;;;;;;;;;;22.88;46.69;99916.81;5052499;28;20295;-76
2023/10/30 11:14:41;;;;;;;;;;;;;;;22.87;46.91;99909.81;5053766;28;19924;-76
2023/10/30 11:17:07;;;;;;;;;;;;;;;22.87;46.93;99907.94;5046070;28;19924;-76
2023/10/30 11:19:32;;;;;;;;;;;;;;;22.86;47.72;99903.59;5042247;28;19917;-76
2023/10/30 11:21:59;;;;;;;;;;;;;;;22.85;47.25;99898.47;5051727;28;19916;-75
2023/10/30 11:24:34;;;;;;;;;;;;;;;22.85;47.27;99893.09;5051431;28;19917;-75
2023/10/30 11:26:59;;;;;;;;;;;;;;;22.82;46.67;99894.41;5040915;28;20051;-76
2023/10/30 11:29:44;;;;;;;;;;;;;;;22.81;47.45;99890.06;5037537;28;20011;-75
2023/10/30 11:32:12;;;;;;;;;;;;;;;22.79;47.85;99881.41;5048637;28;19971;-76
2023/10/30 11:34:38;;;;;;;;;;;;;;;22.76;46.40;99884.59;5044173;28;19927;-77
2023/10/30 11:37:09;;;;;;;;;;;;;;;22.72;45.45;99878.91;5050440;28;20101;-77
2023/10/30 11:39:35;;;;;;;;;;;;;;;22.69;46.83;99879.41;5035094;28;19917;-76
2023/10/30 11:42:01;;;;;;;;;;;;;;;22.68;46.98;99872.38;5046449;28;19963;-76
2023/10/30 11:44:32;;;;;;;;;;;;;;;22.67;47.47;99865.38;5045778;28;19941;-76
2023/10/30 11:46:58;;;;;;;;;;;;;;;22.68;46.97;99869.69;5037273;28;19917;-76
2023/10/30 11:49:28;;;;;;;;;;;;;;;22.67;46.90;99860.00;5033784;28;20463;-77
2023/10/30 11:51:54;;;;;;;;;;;;;;;22.65;46.09;99861.31;5045709;28;19916;-77
2023/10/30 11:54:40;;;;;;;;;;;;;;;22.65;46.42;99854.03;5041493;28;20294;-77
2023/10/30 11:57:05;;;;;;;;;;;;;;;22.64;47.69;99852.41;5049796;28;20428;-76
2023/10/30 11:59:31;;;;;;;;;;;;;;;22.66;47.77;99850.28;5046206;28;19917;-78
2023/10/30 12:02:01;;;;;;;;;;;;;;;22.69;47.63;99843.59;5050060;28;19970;-77
2023/10/30 12:04:35;;;;;;;;;;;;;;;22.68;47.02;99845.47;5150325;27;20012;-76
2023/10/30 12:07:00;;;;;;;;;;;;;;;22.70;47.79;99835.25;5141298;27;19950;-75
2023/10/30 12:09:26;;;;;;;;;;;;;;;22.71;46.92;99830.69;5139479;27;19990;-75
2023/10/30 12:11:52;;;;;;;;;;;;;;;22.37;47.25;99771.63;5135046;27;19916;-77
2023/10/30 12:14:19;;;;;;;;;;;;;;;22.71;46.73;99823.44;5139489;27;20458;-76
2023/10/30 12:16:51;;;;;;;;;;;;;;;22.73;46.93;99823.19;5136172;27;20384;-76
2023/10/30 12:19:22;;;;;;;;;;;;;;;22.76;46.64;99815.41;5148414;27;19938;-77
2023/10/30 12:21:48;;;;;;;;;;;;;;;22.77;46.56;99808.97;5141841;27;19915;-75
2023/10/30 12:24:16;;;;;;;;;;;;;;;22.79;46.55;99808.72;5110399;28;19973;-75
2023/10/30 12:26:42;;;;;;;;;;;;;;;22.82;46.81;99805.56;5131098;27;20288;-75
2023/10/30 12:29:08;;;;;;;;;;;;;;;22.82;46.81;99802.88;5134029;27;19916;-77
2023/10/30 12:31:35;;;;;;;;;;;;;;;22.85;47.24;99802.34;5149775;27;19960;-77
2023/10/30 12:34:09;;;;;;;;;;;;;;;22.86;46.92;99803.97;5140607;27;19951;-77